createdAt,value
2024-03-16T00:00:12.914Z,20.70
2024-03-16T00:03:01.329Z,24.35
2024-03-16T00:05:49.367Z,26.45
2024-03-16T00:08:37.481Z,22.30
2024-03-16T00:11:28.576Z,20.25
2024-03-16T00:14:16.700Z,23.10
2024-03-16T00:17:06.213Z,26.50
2024-03-16T00:19:54.290Z,26.30
2024-03-16T00:22:42.384Z,29.38
2024-03-16T00:25:30.460Z,32.25
2024-03-16T00:28:18.425Z,30.67
2024-03-16T00:31:07.497Z,29.60
2024-03-16T00:33:56.572Z,26.08
2024-03-16T00:36:44.617Z,26.98
2024-03-16T00:39:32.799Z,28.70
2024-03-16T00:42:21.334Z,28.20
2024-03-16T00:45:09.898Z,27.98
2024-03-16T00:47:58.198Z,32.00
2024-03-16T00:50:46.264Z,26.85
2024-03-16T00:53:34.263Z,31.70
2024-03-16T00:56:23.733Z,34.60
2024-03-16T00:59:11.915Z,27.20
2024-03-16T01:02:00.047Z,35.67
2024-03-16T01:04:48.047Z,32.65
2024-03-16T01:07:36.132Z,28.92
2024-03-16T01:10:24.093Z,39.13
2024-03-16T01:13:12.193Z,28.85
2024-03-16T01:16:00.479Z,27.88
2024-03-16T01:18:48.953Z,29.85
2024-03-16T01:21:37.180Z,26.13
2024-03-16T01:24:25.281Z,27.47
2024-03-16T01:27:13.314Z,31.75
2024-03-16T01:30:02.470Z,29.08
2024-03-16T01:32:52.112Z,28.77
2024-03-16T01:35:40.131Z,28.00
2024-03-16T01:38:28.377Z,27.50
2024-03-16T01:41:16.321Z,31.25
2024-03-16T01:44:12.725Z,26.02
2024-03-16T01:47:00.959Z,28.85
2024-03-16T01:49:49.069Z,26.70
2024-03-16T01:52:37.799Z,31.53
2024-03-16T01:55:26.182Z,30.90
2024-03-16T01:58:14.963Z,31.70
2024-03-16T02:01:03.552Z,29.23
2024-03-16T02:03:51.829Z,27.92
2024-03-16T02:06:39.872Z,30.47
2024-03-16T02:09:11.617Z,31.35
2024-03-16T02:11:39.828Z,32.40
2024-03-16T02:14:08.580Z,33.35
2024-03-16T02:16:36.641Z,34.40
2024-03-16T02:19:04.779Z,37.33
2024-03-16T02:21:32.848Z,35.47
2024-03-16T02:24:01.331Z,33.58
2024-03-16T02:26:29.367Z,31.95
2024-03-16T02:28:57.447Z,29.92
2024-03-16T02:31:25.534Z,32.53
2024-03-16T02:33:53.706Z,35.72
2024-03-16T02:36:21.779Z,27.42
2024-03-16T02:38:49.917Z,22.48
2024-03-16T02:41:18.164Z,27.50
2024-03-16T02:43:46.631Z,23.17
2024-03-16T02:46:14.744Z,21.73
2024-03-16T02:48:43.282Z,22.35
2024-03-16T02:51:11.312Z,25.17
2024-03-16T02:53:39.611Z,17.73
2024-03-16T02:56:07.838Z,17.70
2024-03-16T02:58:35.910Z,17.95
2024-03-16T03:01:05.245Z,17.08
2024-03-16T03:03:33.575Z,17.20
2024-03-16T03:06:01.800Z,16.90
2024-03-16T03:08:29.784Z,19.50
2024-03-16T03:10:57.902Z,14.82
2024-03-16T03:13:25.972Z,18.27
2024-03-16T03:15:54.306Z,19.40
2024-03-16T03:18:25.851Z,18.35
2024-03-16T03:20:55.196Z,19.63
2024-03-16T03:23:23.505Z,17.25
2024-03-16T03:25:51.601Z,20.38
2024-03-16T03:28:19.716Z,17.17
2024-03-16T03:30:50.510Z,16.38
2024-03-16T03:33:18.725Z,18.63
2024-03-16T03:35:46.928Z,18.08
2024-03-16T03:38:15.202Z,22.85
2024-03-16T03:40:43.359Z,22.42
2024-03-16T03:43:24.092Z,19.70
2024-03-16T03:45:58.850Z,19.93
2024-03-16T03:48:37.260Z,19.75
2024-03-16T03:51:05.448Z,15.57
2024-03-16T03:53:33.612Z,15.77
2024-03-16T03:56:02.087Z,14.27
2024-03-16T03:58:30.449Z,16.97
2024-03-16T04:00:58.892Z,17.10
2024-03-16T04:03:27.155Z,18.60
2024-03-16T04:05:55.405Z,14.57
2024-03-16T04:08:23.801Z,19.42
2024-03-16T04:10:51.938Z,18.30
2024-03-16T04:13:20.006Z,15.05
2024-03-16T04:15:48.163Z,14.18
2024-03-16T04:18:16.864Z,12.07
2024-03-16T04:20:44.876Z,18.80
2024-03-16T04:23:13.742Z,19.07
2024-03-16T04:25:41.813Z,13.57
2024-03-16T04:28:11.120Z,14.73
2024-03-16T04:30:39.366Z,11.82
2024-03-16T04:33:08.772Z,13.95
2024-03-16T04:35:36.755Z,14.23
2024-03-16T04:38:05.259Z,15.00
2024-03-16T04:40:33.222Z,16.80
2024-03-16T04:43:01.771Z,16.77
2024-03-16T04:45:29.854Z,21.08
2024-03-16T04:47:58.372Z,21.80
2024-03-16T04:50:26.897Z,20.48
2024-03-16T04:52:56.178Z,19.88
2024-03-16T04:55:24.281Z,21.20
2024-03-16T04:57:52.438Z,30.00
2024-03-16T05:00:20.752Z,24.20
2024-03-16T05:02:49.888Z,27.95
2024-03-16T05:05:17.950Z,27.17
2024-03-16T05:07:46.006Z,25.27
2024-03-16T05:10:14.193Z,27.58
2024-03-16T05:12:43.002Z,27.53
2024-03-16T05:15:11.089Z,29.63
2024-03-16T05:17:40.780Z,26.75
2024-03-16T05:20:10.816Z,26.20
2024-03-16T05:22:39.925Z,25.60
2024-03-16T05:25:08.196Z,28.30
2024-03-16T05:27:36.732Z,24.60
2024-03-16T05:30:08.727Z,31.15
2024-03-16T05:32:37.240Z,25.63
2024-03-16T05:35:08.220Z,27.77
2024-03-16T05:37:37.288Z,27.57
2024-03-16T05:40:05.796Z,28.52
2024-03-16T05:42:38.750Z,35.67
2024-03-16T05:45:08.598Z,29.65
2024-03-16T05:47:37.646Z,29.35
2024-03-16T05:50:07.206Z,28.33
2024-03-16T05:52:36.894Z,28.90
2024-03-16T05:55:06.057Z,28.50
2024-03-16T05:57:34.461Z,29.45
2024-03-16T06:00:05.024Z,33.65
2024-03-16T06:02:57.999Z,32.10
2024-03-16T06:05:26.202Z,30.00
2024-03-16T06:07:54.371Z,27.63
2024-03-16T06:10:22.537Z,36.80
2024-03-16T06:12:51.426Z,33.92
2024-03-16T06:15:19.611Z,26.60
2024-03-16T06:17:47.940Z,27.88
2024-03-16T06:20:16.738Z,29.65
2024-03-16T06:22:46.372Z,31.95
2024-03-16T06:25:47.908Z,28.85
2024-03-16T06:28:39.416Z,35.07
2024-03-16T06:31:47.778Z,26.88
2024-03-16T06:34:16.051Z,30.90
2024-03-16T06:36:45.265Z,25.33
2024-03-16T06:39:14.141Z,31.50
2024-03-16T06:41:42.185Z,28.77
2024-03-16T06:44:10.390Z,25.52
2024-03-16T06:46:38.751Z,25.08
2024-03-16T06:49:07.890Z,25.08
2024-03-16T06:51:36.625Z,25.77
2024-03-16T06:54:06.624Z,30.10
2024-03-16T06:56:34.713Z,25.73
2024-03-16T06:59:03.802Z,27.85
2024-03-16T07:01:32.868Z,29.45
2024-03-16T07:04:01.090Z,32.60
2024-03-16T07:06:29.577Z,27.23
2024-03-16T07:09:01.642Z,27.98
2024-03-16T07:11:31.524Z,32.20
2024-03-16T07:13:59.917Z,28.83
2024-03-16T07:16:27.933Z,28.17
2024-03-16T07:18:57.016Z,34.50
2024-03-16T07:21:27.486Z,33.08
2024-03-16T07:23:59.067Z,29.60
2024-03-16T07:26:27.102Z,32.75
2024-03-16T07:28:59.639Z,29.73
2024-03-16T07:31:28.052Z,33.60
2024-03-16T07:33:59.221Z,29.17
2024-03-16T07:36:29.449Z,35.63
2024-03-16T07:38:58.422Z,30.83
2024-03-16T07:41:27.217Z,32.53
2024-03-16T07:43:58.564Z,33.77
2024-03-16T07:46:26.848Z,27.45
2024-03-16T07:48:58.105Z,27.33
2024-03-16T07:51:30.554Z,27.55
2024-03-16T07:53:59.467Z,30.45
2024-03-16T07:56:27.630Z,28.93
2024-03-16T07:58:58.823Z,33.95
2024-03-16T08:01:27.117Z,26.85
2024-03-16T08:03:57.773Z,30.48
2024-03-16T08:06:26.072Z,28.80
2024-03-16T08:08:54.761Z,29.33
2024-03-16T08:11:22.903Z,31.67
2024-03-16T08:13:52.056Z,31.92
2024-03-16T08:16:20.239Z,30.02
2024-03-16T08:18:48.406Z,25.00
2024-03-16T08:21:17.591Z,26.07
2024-03-16T08:23:45.818Z,25.50
2024-03-16T08:26:14.378Z,24.60
2024-03-16T08:28:43.614Z,32.05
2024-03-16T08:31:11.925Z,32.63
2024-03-16T08:33:41.894Z,27.43
2024-03-16T08:36:10.136Z,26.17
2024-03-16T08:38:38.775Z,21.33
2024-03-16T08:41:07.025Z,25.88
2024-03-16T08:43:35.753Z,21.65
2024-03-16T08:46:08.186Z,21.20
2024-03-16T08:48:37.091Z,15.65
2024-03-16T08:51:06.031Z,14.82
2024-03-16T08:53:35.236Z,12.73
2024-03-16T08:56:08.085Z,15.27
2024-03-16T08:58:37.561Z,15.97
2024-03-16T09:01:06.419Z,17.90
2024-03-16T09:03:34.664Z,14.65
2024-03-16T09:06:03.489Z,14.50
2024-03-16T09:08:32.469Z,13.23
2024-03-16T09:11:00.990Z,12.50
2024-03-16T09:13:31.089Z,14.85
2024-03-16T09:15:59.383Z,18.23
2024-03-16T09:18:29.448Z,16.30
2024-03-16T09:20:58.313Z,12.27
2024-03-16T09:23:27.297Z,14.43
2024-03-16T09:25:59.308Z,16.73
2024-03-16T09:29:17.039Z,13.13
2024-03-16T09:31:45.634Z,14.10
2024-03-16T09:34:15.546Z,13.32
2024-03-16T09:36:44.342Z,13.40
2024-03-16T09:39:12.506Z,17.25
2024-03-16T09:41:41.121Z,15.00
